Time;durP1;ratioP1;P1;durP2;ratioP2;P2;SDS_P1;SDS_P2;PMS_P1;PMS_P2;Temp;Humidity;BMP_temperature;BMP_pressure;BME280_temperature;BME280_humidity;BME280_pressure;Samples;Min_cycle;Max_cycle;Signal;HPM_P1;HPM_P2
2022/02/19 00:00:44;;;;;;;4.40;2.00;;;;;;;0.66;70.31;97853.36;104835;1274;76162;-23
2022/02/19 00:03:13;;;;;;;6.40;2.50;;;;;;;1.02;69.49;97845.05;104740;1274;74620;-24
2022/02/19 00:05:41;;;;;;;4.20;1.50;;;;;;;1.47;68.02;97835.95;104700;1274;61134;-23
2022/02/19 00:08:11;;;;;;;5.50;1.70;;;;;;;1.59;66.98;97819.79;104839;1274;61221;-23
2022/02/19 00:10:41;;;;;;;7.80;2.70;;;;;;;1.49;67.21;97811.70;104709;1274;74714;-23
2022/02/19 00:13:12;;;;;;;13.50;3.00;;;;;;;1.33;66.89;97814.58;104805;1272;75980;-23
2022/02/19 00:15:41;;;;;;;6.00;2.00;;;;;;;1.22;66.75;97826.73;104872;1274;74112;-23
2022/02/19 00:18:11;;;;;;;4.50;2.20;;;;;;;1.17;67.00;97827.73;104778;1274;61153;-23
2022/02/19 00:20:44;;;;;;;6.70;3.30;;;;;;;1.14;66.77;97817.88;105013;1272;61132;-23
2022/02/19 00:23:13;;;;;;;8.20;2.60;;;;;;;1.13;66.37;97812.45;105037;1274;75444;-23
2022/02/19 00:25:42;;;;;;;4.10;2.10;;;;;;;1.16;66.22;97816.17;105107;1271;74249;-23
2022/02/19 00:28:10;;;;;;;3.80;2.20;;;;;;;1.33;66.24;97811.54;104838;1271;74324;-23
2022/02/19 00:30:39;;;;;;;5.30;1.30;;;;;;;1.85;64.84;97803.42;104776;1274;61021;-22
2022/02/19 00:33:08;;;;;;;6.00;2.70;;;;;;;2.01;64.03;97792.48;104811;1271;61684;-23
2022/02/19 00:35:36;;;;;;;4.20;2.00;;;;;;;1.94;63.78;97788.62;104813;1271;75463;-23
2022/02/19 00:38:04;;;;;;;7.00;1.80;;;;;;;1.77;64.45;97790.44;104796;1271;75959;-23
2022/02/19 00:40:33;;;;;;;4.30;1.70;;;;;;;1.61;64.45;97780.67;104815;1271;74237;-23
2022/02/19 00:43:02;;;;;;;4.60;1.80;;;;;;;1.55;65.47;97773.71;104842;1272;61026;-23
2022/02/19 00:45:31;;;;;;;3.50;1.60;;;;;;;1.46;65.48;97763.30;104820;1272;62154;-23
2022/02/19 00:48:00;;;;;;;4.00;2.00;;;;;;;1.39;65.77;97760.86;104791;1274;73481;-23
2022/02/19 00:50:29;;;;;;;6.60;1.50;;;;;;;1.36;65.30;97763.65;104755;1274;74562;-23
2022/02/19 00:52:58;;;;;;;6.20;2.20;;;;;;;1.35;64.92;97758.91;104790;1274;73114;-23
2022/02/19 00:55:27;;;;;;;5.00;2.40;;;;;;;1.41;64.90;97760.23;104789;1274;61223;-23
2022/02/19 00:57:56;;;;;;;5.00;2.20;;;;;;;1.43;64.48;97758.41;104798;1274;62147;-23
2022/02/19 01:00:24;;;;;;;4.00;1.90;;;;;;;1.43;64.70;97756.84;105090;1274;75495;-23
2022/02/19 01:03:08;;;;;;;3.60;2.10;;;;;;;1.45;64.49;97753.79;105069;1274;76060;-24
2022/02/19 01:05:37;;;;;;;5.90;2.40;;;;;;;1.49;64.04;97747.04;105122;1274;74550;-23
2022/02/19 01:08:06;;;;;;;4.40;1.80;;;;;;;1.56;63.87;97741.11;105131;1272;61080;-23
2022/02/19 01:10:37;;;;;;;4.10;1.60;;;;;;;1.58;63.96;97739.98;105085;1274;61045;-25
2022/02/19 01:13:05;;;;;;;7.30;2.30;;;;;;;1.57;63.88;97740.56;104667;1277;74557;-24
2022/02/19 01:15:34;;;;;;;4.60;2.40;;;;;;;1.62;63.46;97740.25;104826;1274;74922;-23
2022/02/19 01:18:03;;;;;;;3.20;1.70;;;;;;;1.64;63.18;97748.67;104857;1275;74852;-23
2022/02/19 01:20:31;;;;;;;3.10;1.80;;;;;;;1.67;63.10;97754.86;105056;1273;61026;-23
2022/02/19 01:23:00;;;;;;;5.10;2.20;;;;;;;1.68;63.05;97757.14;104697;1275;61183;-23
2022/02/19 01:25:30;;;;;;;6.60;1.70;;;;;;;1.72;62.73;97759.45;104763;1276;75617;-23
2022/02/19 01:27:58;;;;;;;3.40;1.40;;;;;;;1.74;62.81;97756.04;104862;1274;76186;-23
2022/02/19 01:30:27;;;;;;;3.90;1.70;;;;;;;1.78;62.26;97740.70;104721;1276;74427;-22
2022/02/19 01:32:59;;;;;;;3.30;1.70;;;;;;;1.83;62.19;97737.81;104827;1274;61444;-25
2022/02/19 01:35:30;;;;;;;7.10;1.90;;;;;;;1.85;61.74;97717.51;105051;1273;61044;-25
2022/02/19 01:37:59;;;;;;;3.80;1.30;;;;;;;1.90;61.47;97729.34;104910;1273;75407;-29
2022/02/19 01:40:30;;;;;;;1.70;1.00;;;;;;;1.89;61.89;97722.35;104767;1274;73355;-22
2022/02/19 01:42:59;;;;;;;5.10;2.00;;;;;;;1.88;61.96;97716.27;104656;1274;74251;-23
2022/02/19 01:45:31;;;;;;;7.50;2.50;;;;;;;1.90;61.67;97711.53;104742;1274;60978;-25
2022/02/19 01:48:00;;;;;;;2.70;1.40;;;;;;;1.97;61.17;97714.70;104910;1273;61094;-25
2022/02/19 01:50:28;;;;;;;6.50;2.60;;;;;;;1.98;61.30;97712.20;105017;1273;75535;-25
2022/02/19 01:52:56;;;;;;;3.20;1.70;;;;;;;1.99;61.34;97701.37;104837;1274;74616;-24
2022/02/19 01:55:34;;;;;;;4.00;1.90;;;;;;;1.98;61.20;97708.13;105015;1273;72243;-23
2022/02/19 01:58:11;;;;;;;3.60;1.70;;;;;;;2.01;61.34;97705.17;104768;1273;61055;-23
2022/02/19 02:01:05;;;;;;;3.70;1.70;;;;;;;2.00;62.04;97702.35;104840;1274;61147;-23
2022/02/19 02:03:53;;;;;;;1.50;0.90;;;;;;;1.93;62.87;97702.39;105103;1273;75355;-23
2022/02/19 02:06:26;;;;;;;4.00;2.20;;;;;;;1.88;63.70;97698.77;104878;1274;76024;-22
2022/02/19 02:08:57;;;;;;;3.20;1.70;;;;;;;1.83;64.69;97704.30;104860;1274;72764;-22
2022/02/19 02:11:26;;;;;;;6.80;2.80;;;;;;;1.75;65.78;97700.90;104645;1275;61023;-23
2022/02/19 02:13:59;;;;;;;2.30;1.50;;;;;;;2.07;66.98;97691.88;104730;1274;61026;-22
2022/02/19 02:16:39;;;;;;;3.70;2.20;;;;;;;2.15;67.98;97701.29;104846;1273;74688;-22
2022/02/19 02:19:14;;;;;;;2.80;1.60;;;;;;;1.91;70.27;97696.54;104709;1273;76149;-21
2022/02/19 02:21:57;;;;;;;3.60;1.90;;;;;;;1.79;71.49;97685.38;104862;1275;74792;-21
2022/02/19 02:24:26;;;;;;;4.60;2.70;;;;;;;1.61;73.30;97683.85;104704;1276;62659;-21
2022/02/19 02:26:54;;;;;;;2.30;1.60;;;;;;;1.76;74.29;97685.09;104887;1274;61724;-21
2022/02/19 02:29:23;;;;;;;3.60;2.30;;;;;;;1.57;75.43;97678.81;104686;1276;74555;-21
2022/02/19 02:31:51;;;;;;;4.70;2.10;;;;;;;1.38;76.63;97682.44;105026;1274;76277;-20
2022/02/19 02:34:19;;;;;;;8.00;3.00;;;;;;;1.24;77.98;97673.96;104855;1274;74376;-22
2022/02/19 02:36:48;;;;;;;4.30;1.90;;;;;;;1.57;77.34;97673.63;104843;1274;61116;-21
2022/02/19 02:39:17;;;;;;;3.50;2.10;;;;;;;1.51;77.69;97670.33;105086;1273;62174;-22
2022/02/19 02:41:45;;;;;;;7.20;1.90;;;;;;;1.15;79.25;97657.09;104777;1274;74478;-22
2022/02/19 02:44:14;;;;;;;3.90;2.10;;;;;;;1.13;80.23;97640.65;104693;1274;75103;-21
2022/02/19 02:46:43;;;;;;;3.90;2.70;;;;;;;1.27;80.04;97642.65;104597;1277;74494;-21
2022/02/19 02:49:12;;;;;;;5.30;2.40;;;;;;;1.37;79.64;97634.11;104967;1273;62071;-23
2022/02/19 02:51:40;;;;;;;4.40;1.90;;;;;;;1.15;80.63;97633.67;105039;1273;61210;-23
2022/02/19 02:54:09;;;;;;;6.30;2.80;;;;;;;1.26;80.85;97634.33;104825;1274;74604;-23
2022/02/19 02:56:38;;;;;;;3.30;2.20;;;;;;;1.53;79.97;97623.33;104878;1274;75784;-24
2022/02/19 02:59:07;;;;;;;4.90;2.40;;;;;;;1.51;79.73;97621.88;104824;1275;74200;-23
2022/02/19 03:01:36;;;;;;;3.50;1.80;;;;;;;1.28;80.59;97628.00;105007;1273;61061;-23
2022/02/19 03:04:05;;;;;;;2.00;1.30;;;;;;;1.34;80.93;97609.02;105047;1273;61159;-21
2022/02/19 03:06:33;;;;;;;6.40;3.00;;;;;;;1.57;80.20;97610.17;104689;1276;75679;-22
2022/02/19 03:09:03;;;;;;;7.10;2.30;;;;;;;1.51;79.86;97590.60;104848;1274;74222;-20
2022/02/19 03:11:32;;;;;;;5.10;2.90;;;;;;;1.41;80.15;97585.08;104750;1276;73406;-20
2022/02/19 03:14:05;;;;;;;6.00;2.80;;;;;;;1.66;79.68;97581.55;105074;1273;61156;-20
2022/02/19 03:16:34;;;;;;;3.00;1.40;;;;;;;1.87;78.72;97575.33;104758;1274;61157;-20
2022/02/19 03:19:03;;;;;;;7.20;2.20;;;;;;;1.70;78.93;97556.95;105115;1273;74532;-21
2022/02/19 03:21:32;;;;;;;7.40;2.90;;;;;;;1.58;79.61;97553.54;104907;1274;76435;-20
2022/02/19 03:24:00;;;;;;;5.40;2.50;;;;;;;1.90;78.52;97557.14;104846;1274;74409;-20
2022/02/19 03:26:30;;;;;;;3.40;1.80;;;;;;;2.00;77.80;97546.91;105104;1274;61122;-20
2022/02/19 03:29:02;;;;;;;3.50;2.10;;;;;;;1.86;77.52;97538.09;104992;1274;61178;-20
2022/02/19 03:31:33;;;;;;;3.00;2.00;;;;;;;1.64;77.93;97535.52;105032;1274;72775;-21
2022/02/19 03:34:15;;;;;;;6.60;2.40;;;;;;;1.91;77.33;97532.64;105117;1274;75838;-21
2022/02/19 03:36:44;;;;;;;2.20;1.50;;;;;;;2.12;76.25;97532.16;105021;1274;73531;-20
2022/02/19 03:39:12;;;;;;;3.40;2.00;;;;;;;2.02;76.25;97523.64;105050;1274;61014;-20
2022/02/19 03:41:41;;;;;;;1.30;1.10;;;;;;;1.90;76.83;97523.89;105068;1274;61109;-20
2022/02/19 03:44:09;;;;;;;4.60;2.20;;;;;;;1.87;77.24;97512.87;105149;1274;75622;-21
2022/02/19 03:46:42;;;;;;;2.20;1.60;;;;;;;2.24;75.80;97500.16;104857;1274;75949;-20
2022/02/19 03:49:20;;;;;;;2.70;1.30;;;;;;;2.39;74.49;97499.95;105063;1274;74406;-20
2022/02/19 03:51:49;;;;;;;7.20;2.40;;;;;;;2.21;74.77;97501.09;105126;1272;61080;-20
2022/02/19 03:54:17;;;;;;;2.50;1.20;;;;;;;2.02;75.05;97486.99;105162;1274;61670;-20
2022/02/19 03:56:48;;;;;;;3.90;2.00;;;;;;;1.92;75.59;97485.62;105118;1274;75607;-20
2022/02/19 03:59:16;;;;;;;3.90;1.60;;;;;;;2.35;74.20;97488.06;104872;1274;75647;-20
2022/02/19 04:01:45;;;;;;;3.00;1.90;;;;;;;2.51;73.01;97481.91;105048;1274;73467;-20
2022/02/19 04:04:16;;;;;;;3.90;1.80;;;;;;;2.43;72.56;97470.34;105108;1274;61109;-20
2022/02/19 04:06:46;;;;;;;4.70;1.70;;;;;;;2.22;72.77;97468.13;105141;1274;61032;-20
2022/02/19 04:09:15;;;;;;;9.00;1.80;;;;;;;2.06;73.24;97465.97;105116;1274;75532;-21
2022/02/19 04:11:45;;;;;;;3.70;1.90;;;;;;;2.17;72.98;97463.02;105104;1274;76675;-21
2022/02/19 04:14:15;;;;;;;4.00;2.00;;;;;;;2.56;71.01;97466.14;105119;1274;72844;-21
2022/02/19 04:17:00;;;;;;;5.30;1.60;;;;;;;2.67;69.84;97465.53;105031;1274;61201;-21
2022/02/19 04:19:29;;;;;;;5.10;1.60;;;;;;;2.43;69.85;97459.39;105136;1274;62119;-22
2022/02/19 04:22:03;;;;;;;9.10;2.70;;;;;;;2.32;70.31;97463.81;105074;1274;74231;-21
2022/02/19 04:24:32;;;;;;;5.90;2.50;;;;;;;2.19;69.71;97468.52;104993;1274;74403;-21
2022/02/19 04:27:06;;;;;;;3.00;1.90;;;;;;;2.16;69.75;97457.06;104825;1272;72357;-21
2022/02/19 04:29:36;;;;;;;4.70;2.50;;;;;;;2.46;68.87;97458.66;104719;1274;61341;-21
2022/02/19 04:32:06;;;;;;;5.50;1.40;;;;;;;2.52;68.81;97457.40;104767;1274;62457;-21
2022/02/19 04:34:45;;;;;;;5.20;2.30;;;;;;;2.44;68.46;97450.23;104797;1274;73966;-21
2022/02/19 04:37:14;;;;;;;4.50;1.80;;;;;;;2.35;68.81;97451.95;104890;1274;75061;-21
2022/02/19 04:39:43;;;;;;;5.10;1.90;;;;;;;2.22;69.18;97462.77;105015;1274;74658;-21
2022/02/19 04:42:19;;;;;;;5.40;1.90;;;;;;;2.41;68.42;97466.39;104764;1274;61032;-21
2022/02/19 04:44:48;;;;;;;6.60;2.80;;;;;;;2.66;67.75;97474.70;104810;1274;61821;-21
2022/02/19 04:47:17;;;;;;;10.20;2.20;;;;;;;2.61;67.43;97460.98;105153;1274;74160;-21
2022/02/19 04:49:47;;;;;;;7.10;2.60;;;;;;;2.47;67.67;97453.11;104864;1274;76030;-21
2022/02/19 04:52:16;;;;;;;4.40;2.50;;;;;;;2.31;67.72;97462.13;104670;1275;73813;-21
2022/02/19 04:54:45;;;;;;;4.90;1.80;;;;;;;2.29;68.04;97455.48;105016;1274;61192;-21
2022/02/19 04:57:18;;;;;;;3.20;1.70;;;;;;;2.44;67.68;97462.94;105112;1274;61770;-22
2022/02/19 04:59:46;;;;;;;4.60;2.90;;;;;;;2.71;66.90;97462.64;105012;1274;74687;-22
2022/02/19 05:02:16;;;;;;;3.80;2.10;;;;;;;2.70;66.31;97462.55;105031;1273;75362;-22
2022/02/19 05:04:48;;;;;;;4.60;1.80;;;;;;;2.64;66.70;97469.00;104884;1274;74240;-22
2022/02/19 05:07:23;;;;;;;2.30;1.60;;;;;;;2.44;67.01;97458.84;105055;1272;60989;-23
2022/02/19 05:09:52;;;;;;;5.40;2.60;;;;;;;2.31;67.63;97473.25;104798;1274;61059;-22
2022/02/19 05:12:27;;;;;;;6.70;4.00;;;;;;;2.30;67.30;97480.52;104768;1272;74609;-23
2022/02/19 05:14:56;;;;;;;3.40;1.40;;;;;;;2.51;67.09;97488.64;104871;1274;75791;-22
2022/02/19 05:17:31;;;;;;;3.00;1.90;;;;;;;2.80;66.07;97476.38;105039;1274;74521;-22
2022/02/19 05:20:05;;;;;;;2.60;1.80;;;;;;;2.81;65.81;97483.39;104853;1274;61150;-23
2022/02/19 05:22:35;;;;;;;5.00;2.30;;;;;;;2.63;66.33;97477.30;104570;1274;61082;-23
2022/02/19 05:25:05;;;;;;;7.40;1.90;;;;;;;2.57;66.58;97474.64;104703;1273;72283;-22
2022/02/19 05:27:38;;;;;;;5.40;1.60;;;;;;;2.39;67.50;97484.52;104496;1274;74674;-22
2022/02/19 05:30:10;;;;;;;5.30;1.90;;;;;;;2.32;68.50;97492.91;104684;1277;73329;-23
2022/02/19 05:32:48;;;;;;;9.10;2.30;;;;;;;2.78;67.11;97474.45;104558;1278;61095;-23
2022/02/19 05:35:21;;;;;;;3.60;1.80;;;;;;;2.79;66.66;97481.59;104877;1274;61265;-21
2022/02/19 05:37:50;;;;;;;6.10;2.60;;;;;;;2.69;67.17;97482.71;104750;1274;75442;-21
2022/02/19 05:40:18;;;;;;;4.70;2.50;;;;;;;2.64;67.11;97459.73;104917;1274;76285;-21
2022/02/19 05:42:47;;;;;;;3.10;2.20;;;;;;;2.46;67.92;97476.26;104789;1274;73407;-22
2022/02/19 05:45:22;;;;;;;5.60;2.50;;;;;;;2.31;68.49;97481.98;105077;1274;61720;-21
2022/02/19 05:47:53;;;;;;;6.80;1.80;;;;;;;2.60;67.91;97468.45;105016;1274;62079;-21
2022/02/19 05:50:44;;;;;;;2.00;1.70;;;;;;;2.80;67.33;97472.42;104963;1274;74669;-21
2022/02/19 05:53:21;;;;;;;5.60;2.80;;;;;;;2.83;67.18;97462.27;104653;1275;73995;-22
2022/02/19 05:55:50;;;;;;;10.40;2.70;;;;;;;2.67;67.66;97468.98;105048;1274;72345;-21
2022/02/19 05:58:19;;;;;;;5.50;2.60;;;;;;;2.54;67.79;97464.08;104836;1274;61172;-21
2022/02/19 06:00:55;;;;;;;5.00;2.10;;;;;;;2.47;67.91;97493.02;105042;1273;61045;-21
2022/02/19 06:03:24;;;;;;;5.30;2.10;;;;;;;2.74;67.93;97498.59;105043;1274;75510;-21
2022/02/19 06:05:53;;;;;;;5.50;2.40;;;;;;;3.11;66.31;97530.13;104846;1274;75912;-22
2022/02/19 06:08:23;;;;;;;2.30;1.80;;;;;;;3.24;65.75;97528.00;104890;1273;73192;-22
2022/02/19 06:10:51;;;;;;;2.40;1.70;;;;;;;3.23;65.83;97538.33;104623;1274;61041;-22
2022/02/19 06:13:21;;;;;;;3.80;1.50;;;;;;;3.13;66.05;97515.27;104777;1273;61074;-22
2022/02/19 06:15:49;;;;;;;3.20;1.40;;;;;;;2.93;66.35;97519.80;105104;1273;75560;-22
2022/02/19 06:18:22;;;;;;;3.80;1.70;;;;;;;2.85;67.42;97526.56;105010;1274;75820;-22
2022/02/19 06:20:51;;;;;;;2.00;1.30;;;;;;;2.81;67.01;97523.62;105074;1274;72749;-24
2022/02/19 06:23:27;;;;;;;3.30;1.40;;;;;;;2.83;67.46;97523.64;105098;1273;61131;-25
2022/02/19 06:25:57;;;;;;;3.90;2.30;;;;;;;3.14;67.25;97529.73;105044;1274;61067;-24
2022/02/19 06:28:26;;;;;;;3.00;1.60;;;;;;;3.70;65.08;97532.05;104890;1271;75383;-22
2022/02/19 06:30:55;;;;;;;6.40;3.60;;;;;;;3.89;64.21;97521.49;104882;1272;75994;-22
2022/02/19 06:33:24;;;;;;;7.30;3.60;;;;;;;3.81;64.31;97531.55;104938;1274;72984;-26
2022/02/19 06:35:56;;;;;;;4.80;2.10;;;;;;;3.63;64.52;97521.06;105140;1271;61064;-25
2022/02/19 06:38:26;;;;;;;5.40;3.10;;;;;;;3.61;64.95;97522.23;105168;1274;61032;-25
2022/02/19 06:41:00;;;;;;;3.60;2.50;;;;;;;3.53;65.01;97529.92;105141;1272;75445;-29
2022/02/19 06:43:45;;;;;;;6.90;5.60;;;;;;;3.43;65.26;97534.48;105128;1273;75975;-25
2022/02/19 06:46:14;;;;;;;3.80;3.00;;;;;;;3.39;65.59;97547.80;105129;1274;73450;-23
2022/02/19 06:48:42;;;;;;;6.60;4.30;;;;;;;3.34;65.82;97546.98;104971;1274;61035;-22
2022/02/19 06:51:12;;;;;;;8.20;3.30;;;;;;;3.34;65.82;97551.44;105103;1274;61252;-22
2022/02/19 06:53:41;;;;;;;10.20;8.60;;;;;;;3.30;66.16;97552.94;105009;1274;74599;-23
2022/02/19 06:56:10;;;;;;;8.00;4.90;;;;;;;3.50;65.94;97548.82;105015;1274;73510;-22
2022/02/19 06:58:39;;;;;;;9.30;5.00;;;;;;;4.02;64.48;97545.91;105141;1271;74875;-22
2022/02/19 07:01:07;;;;;;;5.80;3.30;;;;;;;4.08;63.93;97548.72;105036;1274;61086;-22
2022/02/19 07:03:37;;;;;;;11.90;3.90;;;;;;;4.09;63.87;97561.35;105090;1274;61022;-22
2022/02/19 07:06:41;;;;;;;4.50;3.50;;;;;;;3.93;64.50;97570.30;104443;1280;75203;-22
2022/02/19 07:09:09;;;;;;;7.40;5.70;;;;;;;3.87;64.54;97579.00;105028;1274;75052;-22
2022/02/19 07:11:40;;;;;;;11.90;6.60;;;;;;;3.83;65.07;97571.77;105109;1272;74488;-22
2022/02/19 07:14:13;;;;;;;7.00;4.60;;;;;;;3.77;65.54;97562.08;105080;1271;61592;-22
2022/02/19 07:16:42;;;;;;;4.40;3.70;;;;;;;3.77;65.47;97547.69;105112;1272;61054;-22
2022/02/19 07:19:10;;;;;;;7.80;5.40;;;;;;;3.81;65.59;97572.76;105056;1274;75538;-22
2022/02/19 07:21:41;;;;;;;12.30;9.60;;;;;;;3.87;65.62;97564.41;105028;1274;76030;-22
2022/02/19 07:24:10;;;;;;;5.70;4.50;;;;;;;3.84;65.92;97569.27;105036;1274;73097;-24
2022/02/19 07:26:40;;;;;;;6.80;4.80;;;;;;;4.22;64.99;97561.70;105143;1271;61153;-23
2022/02/19 07:29:09;;;;;;;9.10;3.40;;;;;;;4.81;63.02;97578.15;105002;1274;61170;-23
2022/02/19 07:31:41;;;;;;;7.40;6.00;;;;;;;5.00;61.94;97561.27;105122;1271;74428;-23
2022/02/19 07:34:11;;;;;;;5.40;2.90;;;;;;;5.02;62.01;97568.92;105124;1274;74919;-23
2022/02/19 07:36:40;;;;;;;5.10;2.20;;;;;;;4.97;62.16;97593.36;105151;1271;73712;-23
2022/02/19 07:39:10;;;;;;;5.00;3.00;;;;;;;4.80;62.55;97572.16;105045;1271;61669;-21
2022/02/19 07:41:43;;;;;;;6.30;4.40;;;;;;;4.82;62.51;97560.20;104932;1271;61036;-22
2022/02/19 07:44:36;;;;;;;8.50;3.40;;;;;;;4.81;62.63;97583.11;105131;1271;76985;-22
2022/02/19 07:47:25;;;;;;;4.10;1.70;;;;;;;4.79;63.25;97592.22;105146;1271;76152;-24
2022/02/19 07:59:06;;;;;;;5.50;1.80;;;;;;;4.85;62.93;97595.40;104993;1271;74538;-21
2022/02/19 08:01:34;;;;;;;5.40;2.00;;;;;;;4.91;62.55;97593.84;104904;1273;74909;-21
2022/02/19 08:04:03;;;;;;;4.50;2.40;;;;;;;4.96;62.62;97593.65;105139;1271;74249;-22
2022/02/19 08:06:32;;;;;;;5.40;2.50;;;;;;;5.04;62.28;97599.14;104982;1274;61246;-21
2022/02/19 08:09:00;;;;;;;5.00;2.00;;;;;;;5.13;62.18;97604.81;105092;1271;62092;-21
2022/02/19 08:11:31;;;;;;;4.80;2.20;;;;;;;5.23;61.87;97601.92;105134;1271;75372;-22
2022/02/19 08:14:15;;;;;;;3.90;1.70;;;;;;;5.29;61.74;97613.83;105033;1271;74867;-21
2022/02/19 08:16:44;;;;;;;3.50;1.60;;;;;;;5.32;61.65;97621.11;105124;1271;74656;-21
2022/02/19 08:19:12;;;;;;;4.30;1.60;;;;;;;5.32;61.66;97615.98;105068;1274;61125;-22
2022/02/19 08:21:41;;;;;;;2.90;1.20;;;;;;;5.35;61.09;97603.20;104991;1271;61185;-24
2022/02/19 08:24:09;;;;;;;3.40;1.40;;;;;;;5.37;61.29;97610.23;104830;1271;75408;-23
2022/02/19 08:26:38;;;;;;;4.80;2.30;;;;;;;5.39;61.18;97612.95;104793;1271;73869;-23
2022/02/19 08:29:06;;;;;;;5.30;1.50;;;;;;;5.42;61.28;97597.08;104859;1271;74543;-23
2022/02/19 08:31:36;;;;;;;4.50;1.30;;;;;;;5.45;60.93;97604.08;105137;1271;61058;-22
2022/02/19 08:34:04;;;;;;;3.50;1.50;;;;;;;5.47;60.55;97578.92;104949;1271;61091;-22
2022/02/19 08:36:33;;;;;;;5.10;1.80;;;;;;;5.45;61.04;97548.34;105069;1274;76524;-21
2022/02/19 08:39:02;;;;;;;5.00;1.80;;;;;;;5.50;60.87;97549.96;105046;1274;76077;-21
2022/02/19 08:41:31;;;;;;;5.90;1.60;;;;;;;5.55;61.00;97548.15;105135;1271;74334;-21
2022/02/19 08:43:59;;;;;;;3.00;1.40;;;;;;;5.57;60.86;97528.90;104780;1274;61245;-23
2022/02/19 08:46:28;;;;;;;4.80;1.60;;;;;;;5.64;60.81;97570.16;104880;1271;61096;-22
2022/02/19 08:48:57;;;;;;;4.20;1.80;;;;;;;5.69;61.09;97558.70;104721;1274;73488;-22
2022/02/19 08:51:26;;;;;;;1.70;1.10;;;;;;;5.75;60.76;97558.19;104992;1271;76181;-23
2022/02/19 08:53:54;;;;;;;3.40;1.20;;;;;;;5.79;60.56;97554.70;105032;1274;73865;-23
2022/02/19 08:56:22;;;;;;;6.20;1.60;;;;;;;5.87;60.71;97543.20;105119;1274;61360;-23
2022/02/19 08:58:51;;;;;;;4.40;1.80;;;;;;;5.95;60.74;97557.52;105016;1274;61126;-23
2022/02/19 09:01:19;;;;;;;3.30;1.70;;;;;;;6.08;60.57;97570.02;105147;1274;75477;-21
2022/02/19 09:03:49;;;;;;;4.30;1.30;;;;;;;6.20;60.09;97562.14;105074;1274;76053;-22
2022/02/19 09:06:17;;;;;;;3.30;1.60;;;;;;;6.27;59.66;97570.46;105152;1274;74418;-23
2022/02/19 09:08:46;;;;;;;3.70;1.50;;;;;;;6.36;59.33;97549.92;105018;1274;61147;-22
2022/02/19 09:11:26;;;;;;;4.20;1.80;;;;;;;6.42;59.31;97575.55;105090;1271;61127;-22
2022/02/19 09:13:55;;;;;;;4.40;2.10;;;;;;;6.48;59.65;97574.70;105142;1274;75127;-22
2022/02/19 09:16:26;;;;;;;4.90;1.70;;;;;;;6.49;59.17;97563.30;104920;1272;76067;-22
2022/02/19 09:18:55;;;;;;;6.10;1.70;;;;;;;6.58;59.21;97576.56;105002;1273;74596;-22
2022/02/19 09:21:29;;;;;;;6.00;1.80;;;;;;;6.71;59.08;97574.94;104799;1274;61163;-23
2022/02/19 09:23:57;;;;;;;3.50;1.50;;;;;;;6.82;59.15;97581.07;104825;1272;61013;-24
2022/02/19 09:26:26;;;;;;;7.40;2.20;;;;;;;6.86;59.09;97577.77;104832;1274;74729;-22
2022/02/19 09:28:54;;;;;;;5.70;1.90;;;;;;;6.86;58.67;97582.59;104695;1273;74537;-21
2022/02/19 09:31:23;;;;;;;7.70;3.00;;;;;;;6.87;58.54;97577.51;104741;1272;73304;-22
2022/02/19 09:33:51;;;;;;;6.40;3.00;;;;;;;6.90;58.15;97576.67;104821;1271;61144;-22
2022/02/19 09:36:20;;;;;;;6.30;3.20;;;;;;;6.93;58.70;97599.73;105136;1274;61016;-22
2022/02/19 09:38:49;;;;;;;7.40;3.00;;;;;;;6.96;58.88;97604.59;104882;1271;74709;-22
2022/02/19 09:41:18;;;;;;;4.60;2.00;;;;;;;6.99;59.27;97620.28;104782;1274;76048;-22
2022/02/19 09:43:46;;;;;;;5.40;2.40;;;;;;;7.05;58.72;97615.98;104758;1274;74431;-22
2022/02/19 09:46:17;;;;;;;7.60;2.20;;;;;;;7.12;58.88;97608.05;104821;1271;61224;-21
2022/02/19 09:48:46;;;;;;;5.20;1.90;;;;;;;7.18;58.25;97590.96;105017;1272;61147;-22
2022/02/19 09:51:14;;;;;;;8.10;2.20;;;;;;;7.21;58.55;97580.48;105147;1271;75497;-21
2022/02/19 09:53:43;;;;;;;3.70;1.80;;;;;;;7.24;58.26;97577.30;105115;1274;75928;-21
2022/02/19 09:56:11;;;;;;;8.90;2.20;;;;;;;7.28;58.02;97582.99;105003;1274;73633;-22
2022/02/19 09:58:43;;;;;;;3.30;1.80;;;;;;;7.30;58.44;97584.85;105021;1274;61125;-22
2022/02/19 10:01:20;;;;;;;4.60;1.80;;;;;;;7.37;58.27;97584.36;105100;1274;61035;-21
2022/02/19 10:04:02;;;;;;;5.10;1.60;;;;;;;7.54;57.59;97570.52;104783;1274;75579;-22
2022/02/19 10:06:32;;;;;;;4.60;2.00;;;;;;;7.61;57.53;97586.73;104846;1274;76031;-23
2022/02/19 10:09:11;;;;;;;5.50;1.70;;;;;;;7.57;57.46;97590.64;104713;1274;74390;-24
2022/02/19 10:11:40;;;;;;;4.90;1.70;;;;;;;7.54;57.90;97591.44;104627;1274;61153;-24
2022/02/19 10:14:23;;;;;;;7.70;1.90;;;;;;;7.55;58.03;97599.25;104652;1274;61546;-22
2022/02/19 10:17:15;;;;;;;4.50;2.00;;;;;;;7.58;57.85;97597.64;104668;1274;74234;-23
2022/02/19 10:19:46;;;;;;;3.80;1.80;;;;;;;7.61;57.03;97597.44;104652;1271;74451;-22
2022/02/19 10:22:17;;;;;;;6.10;1.60;;;;;;;7.66;56.59;97604.05;104626;1271;74433;-24
2022/02/19 10:25:13;;;;;;;3.50;1.30;;;;;;;7.72;56.50;97608.99;104711;1272;61157;-24
2022/02/19 10:28:07;;;;;;;3.40;1.30;;;;;;;7.78;56.40;97605.20;104873;1271;61134;-24
2022/02/19 10:30:35;;;;;;;6.20;2.10;;;;;;;7.85;57.17;97614.67;104795;1271;75600;-23
2022/02/19 10:33:06;;;;;;;4.20;1.60;;;;;;;7.92;56.86;97613.01;105069;1271;75857;-23
2022/02/19 10:35:38;;;;;;;6.00;1.60;;;;;;;7.98;56.80;97621.00;105126;1271;74150;-24
2022/02/19 10:38:11;;;;;;;3.80;1.40;;;;;;;8.09;56.55;97613.52;104817;1274;61130;-22
2022/02/19 10:40:49;;;;;;;3.40;1.40;;;;;;;8.17;56.72;97608.81;104902;1274;61117;-22
2022/02/19 10:43:22;;;;;;;6.80;1.50;;;;;;;8.28;56.17;97620.39;104715;1272;75879;-22
2022/02/19 10:45:57;;;;;;;2.80;1.10;;;;;;;8.38;56.38;97616.50;104649;1274;75055;-22
2022/02/19 10:48:36;;;;;;;6.00;1.60;;;;;;;8.45;56.09;97610.30;104483;1274;73326;-22
2022/02/19 10:51:08;;;;;;;2.40;1.40;;;;;;;8.55;55.00;97619.66;104782;1274;61052;-22
2022/02/19 10:53:38;;;;;;;3.90;2.20;;;;;;;8.59;54.80;97601.04;104785;1274;61173;-22
2022/02/19 10:56:17;;;;;;;2.90;1.10;;;;;;;8.64;55.31;97604.03;104565;1275;75759;-22
2022/02/19 10:59:06;;;;;;;5.00;1.60;;;;;;;8.74;54.62;97602.95;104657;1274;75964;-23
2022/02/19 11:01:51;;;;;;;3.50;1.30;;;;;;;8.86;54.56;97607.88;105115;1274;74459;-24
2022/02/19 11:04:21;;;;;;;3.00;1.20;;;;;;;8.80;54.60;97608.45;105000;1274;61135;-22
2022/02/19 11:06:50;;;;;;;2.40;1.50;;;;;;;8.71;54.50;97628.48;104783;1274;62066;-23
2022/02/19 11:09:21;;;;;;;3.90;1.40;;;;;;;8.78;54.20;97629.91;104738;1274;75688;-22
2022/02/19 11:11:50;;;;;;;3.10;1.60;;;;;;;8.88;54.70;97629.98;104609;1274;75826;-22
2022/02/19 11:14:18;;;;;;;2.80;1.10;;;;;;;8.90;52.98;97614.88;104961;1271;73387;-22
2022/02/19 11:16:47;;;;;;;3.00;1.30;;;;;;;9.36;51.54;97613.21;104825;1271;61661;-22
2022/02/19 11:19:16;;;;;;;3.70;1.30;;;;;;;9.83;50.47;97619.61;104632;1274;62014;-22
2022/02/19 11:21:44;;;;;;;3.60;1.60;;;;;;;10.17;48.31;97611.20;104635;1274;74141;-22
2022/02/19 11:24:13;;;;;;;3.90;1.20;;;;;;;10.33;47.26;97616.84;104682;1272;76001;-22
2022/02/19 11:26:41;;;;;;;1.60;1.00;;;;;;;10.33;47.61;97636.39;104609;1274;74018;-22
2022/02/19 11:29:15;;;;;;;3.50;1.30;;;;;;;10.17;46.88;97629.48;104420;1274;371783;-22
2022/02/19 11:31:44;;;;;;;;;;;;;;;9.88;47.55;97626.20;104795;1274;61924;-22
2022/02/19 11:34:12;;;;;;;2.30;0.80;;;;;;;9.58;47.84;97626.11;104890;1274;74549;-21
2022/02/19 11:36:42;;;;;;;3.40;1.10;;;;;;;9.22;49.21;97636.05;104872;1274;74802;-22
2022/02/19 11:39:10;;;;;;;3.40;1.30;;;;;;;9.02;50.39;97643.65;104748;1275;74542;-24
2022/02/19 11:41:42;;;;;;;4.50;1.10;;;;;;;8.88;50.95;97651.05;104847;1274;61213;-21
2022/02/19 11:44:21;;;;;;;3.00;1.20;;;;;;;8.75;51.36;97659.20;104725;1274;61046;-21
2022/02/19 11:46:50;;;;;;;2.70;1.30;;;;;;;8.56;51.46;97653.74;105135;1272;75721;-21
2022/02/19 11:49:22;;;;;;;4.20;1.10;;;;;;;8.38;49.58;97653.52;104889;1274;76170;-23
2022/02/19 11:52:06;;;;;;;3.20;1.00;;;;;;;8.17;45.57;97642.17;104802;1274;74352;-23
2022/02/19 11:54:56;;;;;;;2.70;0.90;;;;;;;8.08;41.67;97633.64;104968;1274;62330;-23
2022/02/19 11:57:28;;;;;;;2.40;0.80;;;;;;;7.99;40.25;97620.14;104806;1274;61154;-23
2022/02/19 11:59:56;;;;;;;1.00;0.60;;;;;;;8.59;37.38;97620.58;105103;1272;73995;-23
2022/02/19 12:02:26;;;;;;;1.30;0.60;;;;;;;8.88;36.71;97643.83;104759;1274;75861;-23